Time;durP1;ratioP1;P1;durP2;ratioP2;P2;SDS_P1;SDS_P2;PMS_P1;PMS_P2;Temp;Humidity;BMP_temperature;BMP_pressure;BME280_temperature;BME280_humidity;BME280_pressure;Samples;Min_cycle;Max_cycle;Signal;HPM_P1;HPM_P2
2023/09/04 00:02:23;;;;;;;;;;;15.30;99.90;;;;;;5042877;28;19935;-75
2023/09/04 00:04:51;;;;;;;;;;;15.30;99.90;;;;;;5042997;28;19921;-76
2023/09/04 00:07:18;;;;;;;;;;;15.20;99.90;;;;;;5042703;28;20250;-75
2023/09/04 00:09:45;;;;;;;;;;;15.20;99.90;;;;;;5042881;28;19929;-75
2023/09/04 00:12:11;;;;;;;;;;;15.20;99.90;;;;;;5043081;28;19958;-76
2023/09/04 00:14:38;;;;;;;;;;;15.20;99.90;;;;;;5042608;28;19921;-76
2023/09/04 00:17:05;;;;;;;;;;;15.20;99.90;;;;;;5042515;28;20264;-74
2023/09/04 00:19:34;;;;;;;;;;;15.10;99.90;;;;;;5042521;28;19985;-75
2023/09/04 00:22:00;;;;;;;;;;;15.10;99.90;;;;;;5042434;28;19927;-76
2023/09/04 00:24:27;;;;;;;;;;;15.00;99.90;;;;;;5041961;28;20112;-75
2023/09/04 00:26:54;;;;;;;;;;;15.00;99.90;;;;;;5042960;28;19943;-74
2023/09/04 00:29:20;;;;;;;;;;;15.00;99.90;;;;;;5044542;28;20232;-74
2023/09/04 00:31:47;;;;;;;;;;;15.00;99.90;;;;;;5046266;28;19980;-74
2023/09/04 00:34:14;;;;;;;;;;;14.90;99.90;;;;;;5046080;28;19921;-74
2023/09/04 00:36:42;;;;;;;;;;;14.90;99.90;;;;;;5046281;28;19957;-76
2023/09/04 00:39:09;;;;;;;;;;;14.90;99.90;;;;;;5045543;28;19921;-76
2023/09/04 00:41:38;;;;;;;;;;;14.90;99.90;;;;;;5046105;28;19941;-74
2023/09/04 00:44:04;;;;;;;;;;;14.90;99.90;;;;;;5045969;28;20213;-75
2023/09/04 00:46:31;;;;;;;;;;;14.90;99.90;;;;;;5046056;28;19980;-75
2023/09/04 00:48:58;;;;;;;;;;;14.90;99.90;;;;;;5045770;28;19921;-73
2023/09/04 00:51:25;;;;;;;;;;;14.90;99.90;;;;;;5046164;28;19920;-76
2023/09/04 00:53:53;;;;;;;;;;;14.80;99.90;;;;;;5045865;28;19928;-75
2023/09/04 00:56:19;;;;;;;;;;;14.70;99.90;;;;;;5045895;28;19963;-76
2023/09/04 00:58:46;;;;;;;;;;;14.70;99.90;;;;;;5045617;28;19957;-75
2023/09/04 01:01:13;;;;;;;;;;;14.70;99.90;;;;;;5045656;28;19921;-75
2023/09/04 01:03:39;;;;;;;;;;;14.70;99.90;;;;;;5045872;28;19927;-75
2023/09/04 01:06:06;;;;;;;;;;;14.60;99.90;;;;;;5045764;28;19927;-74
2023/09/04 01:08:33;;;;;;;;;;;14.70;99.90;;;;;;5045645;28;19944;-75
2023/09/04 01:11:06;;;;;;;;;;;14.60;99.90;;;;;;5045464;28;19953;-76
2023/09/04 01:13:37;;;;;;;;;;;14.60;99.90;;;;;;5045654;28;19953;-72
2023/09/04 01:16:05;;;;;;;;;;;14.60;99.90;;;;;;5028861;28;19921;-76
2023/09/04 01:18:33;;;;;;;;;;;14.50;99.90;;;;;;5045366;28;20041;-76
2023/09/04 01:21:02;;;;;;;;;;;14.50;99.90;;;;;;5045271;28;19921;-75
2023/09/04 01:23:28;;;;;;;;;;;14.50;99.90;;;;;;5045517;28;19921;-73
2023/09/04 01:25:58;;;;;;;;;;;14.40;99.90;;;;;;5044348;28;19921;-73
2023/09/04 01:28:26;;;;;;;;;;;14.40;99.90;;;;;;5045010;28;19943;-75
2023/09/04 01:30:57;;;;;;;;;;;14.40;99.90;;;;;;5045140;28;19921;-75
2023/09/04 01:33:28;;;;;;;;;;;14.30;99.90;;;;;;5045466;28;19984;-74
2023/09/04 01:35:55;;;;;;;;;;;14.30;99.90;;;;;;5045241;28;19980;-75
2023/09/04 01:38:23;;;;;;;;;;;14.40;99.90;;;;;;5045096;28;19921;-75
2023/09/04 01:40:51;;;;;;;;;;;14.30;99.90;;;;;;5044575;28;19943;-75
2023/09/04 01:43:18;;;;;;;;;;;14.40;99.90;;;;;;5028153;28;20036;-75
2023/09/04 01:45:45;;;;;;;;;;;14.40;99.90;;;;;;5044791;28;19980;-74
2023/09/04 01:48:12;;;;;;;;;;;14.30;99.90;;;;;;5044752;28;19921;-75
2023/09/04 01:50:38;;;;;;;;;;;14.30;99.90;;;;;;5044797;28;19984;-75
2023/09/04 01:53:05;;;;;;;;;;;14.30;99.90;;;;;;5044592;28;19964;-75
2023/09/04 01:55:33;;;;;;;;;;;14.30;99.90;;;;;;5044989;28;19979;-74
2023/09/04 01:58:00;;;;;;;;;;;14.30;99.90;;;;;;5027975;28;19935;-73
2023/09/04 02:00:26;;;;;;;;;;;14.20;99.90;;;;;;5044509;28;20108;-75
2023/09/04 02:02:53;;;;;;;;;;;14.20;99.90;;;;;;5044681;28;19925;-76
2023/09/04 02:05:19;;;;;;;;;;;14.20;99.90;;;;;;5044608;28;19921;-76
2023/09/04 02:07:46;;;;;;;;;;;14.20;99.90;;;;;;5044293;28;19928;-74
2023/09/04 02:10:13;;;;;;;;;;;14.10;99.90;;;;;;5044189;28;19943;-75
2023/09/04 02:12:41;;;;;;;;;;;14.10;99.90;;;;;;5044429;28;19980;-75
2023/09/04 02:15:08;;;;;;;;;;;14.00;99.90;;;;;;5044450;28;19989;-76
2023/09/04 02:17:34;;;;;;;;;;;13.90;99.90;;;;;;5044444;28;19980;-75
2023/09/04 02:20:01;;;;;;;;;;;13.90;99.90;;;;;;5043830;28;20208;-73
2023/09/04 02:22:27;;;;;;;;;;;13.90;99.90;;;;;;5044383;28;19921;-73
2023/09/04 02:24:55;;;;;;;;;;;13.80;99.90;;;;;;5043704;28;19920;-72
2023/09/04 02:27:22;;;;;;;;;;;13.80;99.90;;;;;;5044110;28;19984;-74
2023/09/04 02:29:50;;;;;;;;;;;13.80;99.90;;;;;;5043909;28;19984;-72
2023/09/04 02:32:16;;;;;;;;;;;13.80;99.90;;;;;;5044290;28;19929;-74
2023/09/04 02:34:43;;;;;;;;;;;13.70;99.90;;;;;;5043816;28;19921;-73
2023/09/04 02:37:09;;;;;;;;;;;13.70;99.90;;;;;;5043971;28;19921;-74
2023/09/04 02:39:36;;;;;;;;;;;13.70;99.90;;;;;;5043486;28;19921;-75
2023/09/04 02:42:03;;;;;;;;;;;13.70;99.90;;;;;;5043698;28;19956;-73
2023/09/04 02:44:29;;;;;;;;;;;13.70;99.90;;;;;;5043702;28;19921;-73
2023/09/04 02:46:57;;;;;;;;;;;13.70;99.90;;;;;;5043637;28;20220;-74
2023/09/04 02:49:24;;;;;;;;;;;13.70;99.90;;;;;;5043647;28;19985;-73
2023/09/04 02:51:50;;;;;;;;;;;13.70;99.90;;;;;;5043151;28;20109;-74
2023/09/04 02:54:17;;;;;;;;;;;13.70;99.90;;;;;;5043825;28;19927;-73
2023/09/04 02:56:43;;;;;;;;;;;13.70;99.90;;;;;;5043606;28;20179;-73
2023/09/04 02:59:10;;;;;;;;;;;13.70;99.90;;;;;;5043472;28;19980;-73
2023/09/04 03:01:37;;;;;;;;;;;13.60;99.90;;;;;;5043877;28;19928;-74
2023/09/04 03:04:05;;;;;;;;;;;13.60;99.90;;;;;;5043674;28;19943;-72
2023/09/04 03:06:33;;;;;;;;;;;13.60;99.90;;;;;;5043831;28;19921;-72
2023/09/04 03:08:59;;;;;;;;;;;13.60;99.90;;;;;;5042945;28;19951;-73
2023/09/04 03:11:28;;;;;;;;;;;13.60;99.90;;;;;;5042998;28;20397;-73
2023/09/04 03:13:54;;;;;;;;;;;13.50;99.90;;;;;;5043700;28;19963;-72
2023/09/04 03:16:21;;;;;;;;;;;13.60;99.90;;;;;;5043759;28;19927;-73
2023/09/04 03:18:47;;;;;;;;;;;13.50;99.90;;;;;;5043552;28;19984;-71
2023/09/04 03:21:15;;;;;;;;;;;13.50;99.90;;;;;;5043366;28;19927;-73
2023/09/04 03:23:42;;;;;;;;;;;13.50;99.90;;;;;;5042603;28;19943;-74
2023/09/04 03:26:10;;;;;;;;;;;13.50;99.90;;;;;;5043466;28;19992;-73
2023/09/04 03:28:36;;;;;;;;;;;13.50;99.90;;;;;;5043316;28;19967;-73
2023/09/04 03:31:03;;;;;;;;;;;13.40;99.90;;;;;;5043121;28;19927;-73
2023/09/04 03:33:29;;;;;;;;;;;13.40;99.90;;;;;;5043452;28;20111;-73
2023/09/04 03:35:57;;;;;;;;;;;13.40;99.90;;;;;;5043569;28;19927;-71
2023/09/04 03:38:25;;;;;;;;;;;13.40;99.90;;;;;;5043204;28;19984;-76
2023/09/04 03:40:54;;;;;;;;;;;13.50;99.90;;;;;;5042692;28;19921;-76
2023/09/04 03:43:24;;;;;;;;;;;13.50;99.90;;;;;;5042858;28;19927;-76
2023/09/04 03:45:51;;;;;;;;;;;13.60;99.90;;;;;;5043459;28;19921;-73
2023/09/04 03:48:17;;;;;;;;;;;13.60;99.90;;;;;;5043292;28;19921;-73
2023/09/04 03:50:44;;;;;;;;;;;13.60;99.90;;;;;;5042783;28;19920;-73
2023/09/04 03:53:10;;;;;;;;;;;13.60;99.90;;;;;;5043300;28;19988;-74
2023/09/04 03:55:39;;;;;;;;;;;13.60;99.90;;;;;;5043011;28;20089;-73
2023/09/04 03:58:05;;;;;;;;;;;13.60;99.90;;;;;;5043155;28;19921;-73
2023/09/04 04:00:32;;;;;;;;;;;13.60;99.90;;;;;;5043013;28;20112;-72
2023/09/04 04:02:59;;;;;;;;;;;13.50;99.90;;;;;;5044994;28;19927;-73
2023/09/04 04:05:26;;;;;;;;;;;13.50;99.90;;;;;;5046810;28;19921;-73
2023/09/04 04:07:52;;;;;;;;;;;13.50;99.90;;;;;;5052748;28;19927;-74
2023/09/04 04:10:19;;;;;;;;;;;13.50;99.90;;;;;;5048662;28;20256;-72
2023/09/04 04:12:47;;;;;;;;;;;13.50;99.90;;;;;;5046919;28;19984;-73
2023/09/04 04:15:14;;;;;;;;;;;13.50;99.90;;;;;;5046517;28;20221;-75
2023/09/04 04:17:43;;;;;;;;;;;13.50;99.90;;;;;;5061823;28;19927;-73
2023/09/04 04:20:11;;;;;;;;;;;13.40;99.90;;;;;;5066561;28;19921;-73
2023/09/04 04:22:38;;;;;;;;;;;13.40;99.90;;;;;;5066602;28;19924;-75
2023/09/04 04:25:05;;;;;;;;;;;13.40;99.90;;;;;;5066624;28;20008;-74
2023/09/04 04:27:32;;;;;;;;;;;13.40;99.90;;;;;;5066339;28;19991;-72
2023/09/04 04:30:00;;;;;;;;;;;13.40;99.90;;;;;;5066320;28;19920;-73
2023/09/04 04:32:27;;;;;;;;;;;13.30;99.90;;;;;;5066565;28;20024;-73
2023/09/04 04:34:53;;;;;;;;;;;13.30;99.90;;;;;;5050883;28;19980;-73
2023/09/04 04:37:20;;;;;;;;;;;13.30;99.90;;;;;;5046468;28;19943;-73
2023/09/04 04:39:47;;;;;;;;;;;13.30;99.90;;;;;;5046227;28;19928;-73
2023/09/04 04:42:15;;;;;;;;;;;13.30;99.90;;;;;;5046163;28;20159;-74
2023/09/04 04:44:42;;;;;;;;;;;13.20;99.90;;;;;;5046381;28;19921;-74
2023/09/04 04:47:10;;;;;;;;;;;13.20;99.90;;;;;;5046343;28;19921;-71
2023/09/04 04:49:36;;;;;;;;;;;13.20;99.90;;;;;;5046003;28;19928;-73
2023/09/04 04:52:03;;;;;;;;;;;13.20;99.90;;;;;;5046179;28;19921;-73
2023/09/04 04:54:30;;;;;;;;;;;13.20;99.90;;;;;;5045972;28;19921;-75
2023/09/04 04:56:56;;;;;;;;;;;13.20;99.90;;;;;;5045858;28;19951;-74
2023/09/04 04:59:23;;;;;;;;;;;13.20;99.90;;;;;;5044819;28;19984;-75
2023/09/04 05:01:49;;;;;;;;;;;13.20;99.90;;;;;;5046296;28;19976;-75
2023/09/04 05:04:17;;;;;;;;;;;13.20;99.90;;;;;;5046918;28;19927;-74
2023/09/04 05:06:46;;;;;;;;;;;13.20;99.90;;;;;;5046279;28;20271;-74
2023/09/04 05:09:12;;;;;;;;;;;13.30;99.90;;;;;;5046114;28;19921;-75
2023/09/04 05:11:39;;;;;;;;;;;13.20;99.90;;;;;;5046370;28;19971;-72
2023/09/04 05:14:05;;;;;;;;;;;13.20;99.90;;;;;;5046703;28;19927;-75
2023/09/04 05:16:32;;;;;;;;;;;13.10;99.90;;;;;;5046061;28;19980;-76
2023/09/04 05:18:59;;;;;;;;;;;13.10;99.90;;;;;;5045745;28;19921;-75
2023/09/04 05:21:27;;;;;;;;;;;13.10;99.90;;;;;;5045626;28;19921;-74
2023/09/04 05:23:53;;;;;;;;;;;13.10;99.90;;;;;;5045607;28;19921;-76
2023/09/04 05:26:20;;;;;;;;;;;13.10;99.90;;;;;;5045657;28;19921;-76
2023/09/04 05:28:46;;;;;;;;;;;13.20;99.90;;;;;;5045456;28;20167;-76
2023/09/04 05:31:15;;;;;;;;;;;13.30;99.90;;;;;;5044645;28;19956;-76
2023/09/04 05:33:43;;;;;;;;;;;13.20;99.90;;;;;;5045486;28;19989;-74
2023/09/04 05:36:10;;;;;;;;;;;13.30;99.90;;;;;;5045489;28;19928;-75
2023/09/04 05:38:38;;;;;;;;;;;13.30;99.90;;;;;;5045503;28;20027;-76
2023/09/04 05:41:05;;;;;;;;;;;13.20;99.90;;;;;;5045420;28;19921;-76
2023/09/04 05:43:31;;;;;;;;;;;13.30;99.90;;;;;;5045888;28;19921;-76
2023/09/04 05:46:04;;;;;;;;;;;13.30;99.90;;;;;;5045009;28;19921;-71
2023/09/04 05:48:31;;;;;;;;;;;13.40;99.90;;;;;;5034535;28;19928;-76
2023/09/04 05:50:58;;;;;;;;;;;13.50;99.90;;;;;;5047387;28;19948;-76
2023/09/04 05:53:25;;;;;;;;;;;13.50;99.90;;;;;;5047871;28;19928;-76
2023/09/04 05:56:05;;;;;;;;;;;13.50;99.90;;;;;;5047408;28;19921;-76
2023/09/04 05:58:33;;;;;;;;;;;13.60;99.90;;;;;;5047312;28;20157;-76
2023/09/04 06:01:06;;;;;;;;;;;13.60;99.90;;;;;;5047307;28;19963;-76
2023/09/04 06:03:33;;;;;;;;;;;13.60;99.90;;;;;;5047555;28;19984;-76
2023/09/04 06:06:00;;;;;;;;;;;13.60;99.90;;;;;;5047014;28;19957;-76
2023/09/04 06:08:26;;;;;;;;;;;13.70;99.90;;;;;;5047150;28;19921;-76
2023/09/04 06:10:53;;;;;;;;;;;13.70;99.90;;;;;;5047505;28;19927;-75
2023/09/04 06:13:21;;;;;;;;;;;13.70;99.90;;;;;;5047690;28;20205;-76
2023/09/04 06:15:50;;;;;;;;;;;13.70;99.90;;;;;;5047595;28;20112;-74
2023/09/04 06:18:16;;;;;;;;;;;13.80;99.90;;;;;;5047029;28;19928;-76
2023/09/04 06:20:43;;;;;;;;;;;13.90;99.90;;;;;;5046700;28;19921;-75
2023/09/04 06:23:09;;;;;;;;;;;13.90;99.90;;;;;;5046985;28;19921;-75
2023/09/04 06:25:39;;;;;;;;;;;14.00;99.90;;;;;;5046278;28;19928;-76
2023/09/04 06:28:06;;;;;;;;;;;14.00;99.90;;;;;;5046220;28;20152;-76
2023/09/04 06:30:34;;;;;;;;;;;14.10;99.90;;;;;;5046433;28;19959;-76
2023/09/04 06:33:01;;;;;;;;;;;14.10;99.90;;;;;;5046712;28;20177;-76
2023/09/04 06:35:28;;;;;;;;;;;14.20;99.90;;;;;;5046281;28;19957;-76
2023/09/04 06:37:55;;;;;;;;;;;14.30;99.90;;;;;;5046350;28;19966;-76
2023/09/04 06:40:21;;;;;;;;;;;14.40;99.90;;;;;;5046265;28;20240;-74
2023/09/04 06:42:48;;;;;;;;;;;14.40;99.90;;;;;;5045978;28;19996;-76
2023/09/04 06:45:15;;;;;;;;;;;14.50;99.90;;;;;;5046252;28;19985;-76
2023/09/04 06:47:43;;;;;;;;;;;14.60;99.90;;;;;;5046238;28;19932;-76
2023/09/04 06:50:09;;;;;;;;;;;14.60;99.90;;;;;;5045688;28;19988;-74
2023/09/04 06:52:37;;;;;;;;;;;14.70;99.90;;;;;;5044797;28;20280;-76
2023/09/04 06:55:05;;;;;;;;;;;14.80;99.90;;;;;;5045574;28;19928;-73
2023/09/04 06:57:31;;;;;;;;;;;14.80;99.90;;;;;;5045111;28;19960;-76
2023/09/04 06:59:58;;;;;;;;;;;14.90;99.90;;;;;;5045033;28;19921;-75
2023/09/04 07:02:25;;;;;;;;;;;14.90;99.90;;;;;;5045407;28;19921;-74
2023/09/04 07:04:54;;;;;;;;;;;15.10;99.90;;;;;;5045228;28;20097;-76
2023/09/04 07:07:20;;;;;;;;;;;15.10;99.90;;;;;;5034966;28;19922;-76
2023/09/04 07:09:47;;;;;;;;;;;15.20;99.90;;;;;;5042068;28;19921;-76
2023/09/04 07:12:14;;;;;;;;;;;15.20;99.90;;;;;;5024800;28;19984;-76
2023/09/04 07:14:40;;;;;;;;;;;15.30;99.90;;;;;;5030605;28;19921;-75
2023/09/04 07:17:07;;;;;;;;;;;15.40;99.90;;;;;;5044274;28;19957;-75
2023/09/04 07:19:34;;;;;;;;;;;15.40;99.90;;;;;;5043650;28;19988;-75
2023/09/04 07:22:02;;;;;;;;;;;15.40;99.90;;;;;;5044108;28;19928;-75
2023/09/04 07:24:28;;;;;;;;;;;15.40;99.90;;;;;;5027422;28;20237;-74
2023/09/04 07:26:55;;;;;;;;;;;15.50;99.90;;;;;;5024688;28;19985;-76
2023/09/04 07:29:22;;;;;;;;;;;15.60;99.90;;;;;;5024177;28;19927;-75
2023/09/04 07:31:48;;;;;;;;;;;15.60;99.90;;;;;;5024855;28;19992;-76
2023/09/04 07:34:15;;;;;;;;;;;15.60;99.90;;;;;;5024174;28;19984;-74
2023/09/04 07:36:42;;;;;;;;;;;15.70;99.90;;;;;;5024400;28;19977;-75
2023/09/04 07:39:10;;;;;;;;;;;15.70;99.90;;;;;;5028398;28;19921;-76
2023/09/04 07:41:36;;;;;;;;;;;15.80;99.90;;;;;;5044973;28;19927;-76
2023/09/04 07:44:03;;;;;;;;;;;15.90;99.90;;;;;;5048416;28;19921;-76
2023/09/04 07:46:29;;;;;;;;;;;16.00;99.90;;;;;;5047912;28;19921;-75
2023/09/04 07:48:56;;;;;;;;;;;16.00;99.90;;;;;;5047943;28;20053;-75
2023/09/04 07:51:22;;;;;;;;;;;16.10;99.90;;;;;;5047202;28;19980;-74
2023/09/04 07:53:49;;;;;;;;;;;16.10;99.90;;;;;;5047384;28;19984;-76
2023/09/04 07:56:17;;;;;;;;;;;16.20;99.90;;;;;;5047663;28;19928;-75
2023/09/04 07:58:44;;;;;;;;;;;16.40;99.90;;;;;;5047581;28;20287;-76
2023/09/04 08:01:11;;;;;;;;;;;16.50;99.90;;;;;;5047417;28;19928;-76
2023/09/04 08:03:38;;;;;;;;;;;16.60;99.90;;;;;;5047535;28;19921;-75
2023/09/04 08:06:04;;;;;;;;;;;16.60;99.90;;;;;;5047847;28;19956;-75
2023/09/04 08:08:31;;;;;;;;;;;16.60;99.90;;;;;;5029194;28;20293;-76
2023/09/04 08:10:58;;;;;;;;;;;16.70;99.90;;;;;;5027429;28;20209;-75
2023/09/04 08:13:26;;;;;;;;;;;16.80;99.90;;;;;;5027624;28;19984;-75
2023/09/04 08:15:52;;;;;;;;;;;16.80;99.90;;;;;;5045928;28;19921;-77
2023/09/04 08:18:19;;;;;;;;;;;16.90;99.90;;;;;;5047483;28;19984;-76
2023/09/04 08:20:46;;;;;;;;;;;17.00;99.90;;;;;;5047104;28;19944;-75
2023/09/04 08:23:13;;;;;;;;;;;17.10;99.90;;;;;;5047010;28;19921;-75
2023/09/04 08:25:39;;;;;;;;;;;17.30;99.90;;;;;;5047638;28;19929;-76
2023/09/04 08:28:06;;;;;;;;;;;17.30;99.90;;;;;;5047537;28;19929;-76
2023/09/04 08:30:35;;;;;;;;;;;17.40;99.90;;;;;;5047470;28;19925;-75
2023/09/04 08:33:01;;;;;;;;;;;17.50;99.90;;;;;;5047318;28;19921;-75
2023/09/04 08:35:29;;;;;;;;;;;17.60;99.90;;;;;;5047479;28;19928;-76
2023/09/04 08:37:56;;;;;;;;;;;17.60;99.90;;;;;;5047209;28;19921;-75
2023/09/04 08:40:23;;;;;;;;;;;17.60;99.90;;;;;;5046917;28;19921;-75
2023/09/04 08:42:50;;;;;;;;;;;17.70;99.90;;;;;;5047267;28;19984;-76
2023/09/04 08:45:18;;;;;;;;;;;17.80;99.90;;;;;;5046830;28;19931;-75
2023/09/04 08:47:47;;;;;;;;;;;17.90;99.90;;;;;;5046821;28;19979;-76
2023/09/04 08:50:13;;;;;;;;;;;18.00;99.90;;;;;;5045584;28;20009;-76
2023/09/04 08:52:41;;;;;;;;;;;18.10;99.90;;;;;;5045611;28;19921;-76
2023/09/04 08:55:08;;;;;;;;;;;18.10;99.90;;;;;;5046852;28;19988;-74
2023/09/04 08:57:34;;;;;;;;;;;18.10;99.90;;;;;;5046351;28;19928;-76
2023/09/04 09:00:01;;;;;;;;;;;18.20;99.90;;;;;;5046071;28;19984;-76
2023/09/04 09:02:28;;;;;;;;;;;18.40;99.90;;;;;;5046316;28;19921;-75
2023/09/04 09:04:56;;;;;;;;;;;18.50;99.90;;;;;;5046222;28;19992;-76
2023/09/04 09:07:23;;;;;;;;;;;18.50;99.90;;;;;;5045887;28;19959;-76
2023/09/04 09:09:51;;;;;;;;;;;18.70;99.90;;;;;;5048529;28;19986;-77
2023/09/04 09:12:18;;;;;;;;;;;18.70;99.90;;;;;;5056511;28;19948;-73
2023/09/04 09:14:44;;;;;;;;;;;18.80;99.90;;;;;;5056991;28;19929;-75
2023/09/04 09:17:13;;;;;;;;;;;18.90;99.90;;;;;;5054360;28;19976;-75
2023/09/04 09:19:40;;;;;;;;;;;19.00;99.90;;;;;;5047679;28;19924;-74
2023/09/04 09:22:11;;;;;;;;;;;19.10;99.90;;;;;;5046158;28;19943;-77
2023/09/04 09:24:51;;;;;;;;;;;19.20;99.90;;;;;;5046229;28;20000;-75
2023/09/04 09:27:19;;;;;;;;;;;19.20;99.90;;;;;;5046209;28;19980;-77
2023/09/04 09:29:46;;;;;;;;;;;19.30;99.90;;;;;;5045483;28;19929;-76
2023/09/04 09:32:12;;;;;;;;;;;19.40;99.90;;;;;;5045562;28;19957;-76
2023/09/04 09:34:39;;;;;;;;;;;19.50;99.90;;;;;;5045486;28;19988;-75
2023/09/04 09:37:06;;;;;;;;;;;19.50;99.90;;;;;;5045125;28;20234;-74
2023/09/04 09:39:34;;;;;;;;;;;19.60;99.90;;;;;;5045127;28;19936;-75
2023/09/04 09:42:02;;;;;;;;;;;19.70;99.90;;;;;;5045081;28;19984;-76
2023/09/04 09:44:32;;;;;;;;;;;19.80;99.90;;;;;;5044915;28;20209;-75
2023/09/04 09:46:58;;;;;;;;;;;19.80;99.90;;;;;;5045145;28;19960;-74
2023/09/04 09:49:25;;;;;;;;;;;19.80;99.90;;;;;;5045105;28;20112;-76
2023/09/04 09:51:53;;;;;;;;;;;19.90;99.90;;;;;;5044851;28;19921;-76
2023/09/04 09:54:34;;;;;;;;;;;20.00;99.90;;;;;;5045027;28;19921;-76
2023/09/04 09:57:02;;;;;;;;;;;20.10;99.90;;;;;;5045039;28;19963;-75
2023/09/04 09:59:31;;;;;;;;;;;20.20;99.90;;;;;;5044948;28;19980;-76
2023/09/04 10:01:58;;;;;;;;;;;20.30;99.90;;;;;;5044589;28;19921;-75
2023/09/04 10:04:25;;;;;;;;;;;20.30;99.90;;;;;;5044883;28;19992;-75
2023/09/04 10:12:43;;;;;;;;;;;20.60;99.90;;;;;;5063342;22;20120;-74
2023/09/04 10:15:11;;;;;;;;;;;20.60;99.90;;;;;;5060148;28;19921;-75
2023/09/04 10:17:40;;;;;;;;;;;20.70;99.90;;;;;;5064659;28;19987;-74
2023/09/04 10:20:11;;;;;;;;;;;20.80;99.90;;;;;;5064410;28;19992;-74
2023/09/04 10:25:31;;;;;;;;;;;20.80;99.90;;;;;;5033644;28;19921;-76
2023/09/04 10:28:03;;;;;;;;;;;20.90;99.90;;;;;;5044449;28;19952;-74
2023/09/04 10:30:32;;;;;;;;;;;20.90;99.90;;;;;;5044409;28;19921;-74
2023/09/04 10:32:59;;;;;;;;;;;21.00;99.90;;;;;;5044503;28;19984;-74
2023/09/04 10:35:26;;;;;;;;;;;21.20;99.90;;;;;;5044399;28;19928;-75
2023/09/04 10:37:53;;;;;;;;;;;21.40;99.90;;;;;;5044330;28;19993;-75
2023/09/04 10:40:20;;;;;;;;;;;21.50;99.90;;;;;;5043962;28;20212;-74
2023/09/04 10:42:47;;;;;;;;;;;21.60;99.90;;;;;;5044269;28;19964;-75
2023/09/04 10:45:16;;;;;;;;;;;21.70;99.90;;;;;;5043834;28;19928;-72
2023/09/04 10:47:47;;;;;;;;;;;21.70;99.90;;;;;;5043455;28;19921;-74
2023/09/04 10:50:29;;;;;;;;;;;21.70;99.90;;;;;;5043629;28;19921;-74
2023/09/04 10:52:56;;;;;;;;;;;21.90;99.90;;;;;;5043762;28;19984;-74
2023/09/04 10:55:24;;;;;;;;;;;21.90;99.90;;;;;;5043956;28;19959;-74
2023/09/04 10:57:54;;;;;;;;;;;22.00;99.90;;;;;;5043387;28;20132;-74
2023/09/04 11:00:29;;;;;;;;;;;22.10;99.90;;;;;;5043817;28;19925;-74
2023/09/04 11:02:55;;;;;;;;;;;22.20;99.90;;;;;;5044062;28;20201;-74
2023/09/04 11:05:23;;;;;;;;;;;22.20;99.90;;;;;;5044393;28;20205;-75
2023/09/04 11:07:50;;;;;;;;;;;22.30;99.90;;;;;;5044185;28;19984;-75
2023/09/04 11:10:36;;;;;;;;;;;22.40;99.90;;;;;;5043463;28;19943;-75
2023/09/04 11:13:03;;;;;;;;;;;22.60;99.90;;;;;;5042811;28;19927;-74
2023/09/04 11:15:33;;;;;;;;;;;22.80;99.90;;;;;;5043557;28;19960;-74
2023/09/04 11:18:00;;;;;;;;;;;22.90;99.90;;;;;;5043751;28;19944;-76
2023/09/04 11:20:27;;;;;;;;;;;23.10;99.90;;;;;;5043376;28;19921;-74
2023/09/04 11:22:54;;;;;;;;;;;23.10;99.90;;;;;;5043681;28;19921;-75
2023/09/04 11:25:32;;;;;;;;;;;23.20;99.90;;;;;;5043478;28;19928;-75
2023/09/04 11:28:01;;;;;;;;;;;23.20;99.90;;;;;;5042816;28;19928;-76
2023/09/04 11:30:33;;;;;;;;;;;23.30;99.90;;;;;;5043401;28;19927;-75
2023/09/04 11:33:02;;;;;;;;;;;23.40;99.90;;;;;;5042367;28;19992;-76
2023/09/04 11:35:29;;;;;;;;;;;23.60;99.90;;;;;;5043448;28;19927;-75
2023/09/04 11:38:04;;;;;;;;;;;23.80;99.90;;;;;;5043518;28;20115;-74
2023/09/04 11:40:34;;;;;;;;;;;24.00;99.90;;;;;;5043470;28;19987;-75
2023/09/04 11:43:01;;;;;;;;;;;24.00;99.90;;;;;;5043212;28;19921;-75
2023/09/04 11:45:27;;;;;;;;;;;24.10;99.90;;;;;;5043199;28;19921;-75
2023/09/04 11:47:55;;;;;;;;;;;24.20;99.90;;;;;;5036656;28;19921;-75
2023/09/04 11:50:22;;;;;;;;;;;24.30;99.90;;;;;;5042720;28;19929;-75
2023/09/04 11:58:38;;;;;;;;;;;24.70;99.90;;;;;;5022230;28;19949;-75
2023/09/04 12:01:04;;;;;;;;;;;24.90;99.90;;;;;;5034947;28;19932;-73
2023/09/04 12:03:32;;;;;;;;;;;24.90;99.90;;;;;;5037320;28;19914;-75
2023/09/04 12:05:59;;;;;;;;;;;24.80;99.90;;;;;;5033295;28;19928;-76
2023/09/04 12:08:31;;;;;;;;;;;24.80;99.90;;;;;;5043657;28;19956;-75
2023/09/04 12:11:03;;;;;;;;;;;25.00;99.90;;;;;;5056824;28;19921;-75
2023/09/04 12:13:31;;;;;;;;;;;25.10;99.90;;;;;;5043271;28;20175;-75
2023/09/04 12:16:05;;;;;;;;;;;25.20;99.90;;;;;;5042897;28;19921;-76
2023/09/04 12:18:36;;;;;;;;;;;25.40;99.90;;;;;;5043127;28;19921;-75
2023/09/04 12:21:06;;;;;;;;;;;25.50;99.90;;;;;;5042803;28;19936;-75
2023/09/04 12:23:43;;;;;;;;;;;25.70;99.90;;;;;;5044573;28;19928;-75
2023/09/04 12:26:10;;;;;;;;;;;25.80;99.90;;;;;;5047029;28;19921;-76
2023/09/04 12:28:37;;;;;;;;;;;25.70;99.90;;;;;;5046782;28;20032;-74
2023/09/04 12:31:06;;;;;;;;;;;25.60;99.90;;;;;;5046199;28;19921;-75
2023/09/04 12:33:39;;;;;;;;;;;25.60;99.90;;;;;;5046539;28;20263;-75
2023/09/04 12:36:09;;;;;;;;;;;25.70;99.90;;;;;;5044964;28;19971;-76
2023/09/04 12:38:36;;;;;;;;;;;25.80;99.90;;;;;;5046414;28;20230;-75
2023/09/04 12:41:03;;;;;;;;;;;25.80;99.90;;;;;;5045750;28;19921;-75
2023/09/04 12:43:29;;;;;;;;;;;25.80;99.90;;;;;;5046669;28;19963;-75
2023/09/04 12:45:57;;;;;;;;;;;25.90;99.90;;;;;;5043871;28;19943;-75
2023/09/04 12:48:34;;;;;;;;;;;26.00;99.90;;;;;;5044412;28;20280;-75
2023/09/04 12:51:02;;;;;;;;;;;26.00;99.90;;;;;;5045930;28;19984;-76
2023/09/04 12:53:29;;;;;;;;;;;26.10;99.90;;;;;;5046408;28;19921;-76
2023/09/04 12:55:56;;;;;;;;;;;26.20;99.90;;;;;;5046157;28;19984;-76
2023/09/04 12:58:24;;;;;;;;;;;26.20;99.90;;;;;;5042336;28;20123;-76
2023/09/04 13:00:51;;;;;;;;;;;26.20;99.90;;;;;;5045891;28;19985;-76
2023/09/04 13:03:17;;;;;;;;;;;26.20;99.90;;;;;;5046336;28;20165;-76
2023/09/04 13:05:44;;;;;;;;;;;26.40;99.90;;;;;;5046117;28;19991;-76
2023/09/04 13:08:12;;;;;;;;;;;26.50;99.90;;;;;;5046210;28;19921;-76
2023/09/04 13:10:39;;;;;;;;;;;26.50;99.90;;;;;;5045280;28;19927;-76
2023/09/04 13:13:06;;;;;;;;;;;26.50;99.90;;;;;;5045780;28;19957;-75
2023/09/04 13:15:32;;;;;;;;;;;26.50;99.90;;;;;;5045973;28;19943;-76
2023/09/04 13:17:59;;;;;;;;;;;26.60;99.90;;;;;;5045769;28;19928;-76
2023/09/04 13:20:26;;;;;;;;;;;26.80;99.90;;;;;;5045375;28;19988;-76
2023/09/04 13:22:53;;;;;;;;;;;27.00;99.90;;;;;;5045813;28;20382;-75
2023/09/04 13:25:21;;;;;;;;;;;27.30;99.90;;;;;;5045903;28;19922;-75
2023/09/04 13:27:47;;;;;;;;;;;27.50;99.90;;;;;;5045946;28;19928;-75
2023/09/04 13:30:14;;;;;;;;;;;27.70;99.90;;;;;;5044823;28;20200;-75
2023/09/04 13:32:41;;;;;;;;;;;27.60;99.90;;;;;;5045282;28;20268;-74
2023/09/04 13:35:08;;;;;;;;;;;27.50;99.90;;;;;;5044433;28;20115;-74
2023/09/04 13:37:34;;;;;;;;;;;27.70;99.90;;;;;;5045423;28;19921;-74
2023/09/04 13:40:03;;;;;;;;;;;27.80;99.90;;;;;;5046061;28;19943;-74
2023/09/04 13:42:33;;;;;;;;;;;28.10;99.90;;;;;;5045306;28;19925;-74
2023/09/04 13:45:01;;;;;;;;;;;28.20;99.90;;;;;;5047588;28;19992;-73
2023/09/04 13:47:28;;;;;;;;;;;28.20;99.90;;;;;;5045114;28;20419;-74
2023/09/04 13:49:55;;;;;;;;;;;28.20;99.90;;;;;;5044943;28;19967;-74
2023/09/04 13:52:22;;;;;;;;;;;28.20;99.90;;;;;;5044827;28;19927;-74
2023/09/04 13:54:49;;;;;;;;;;;28.30;99.90;;;;;;5044907;28;19989;-74
2023/09/04 13:57:15;;;;;;;;;;;28.30;99.90;;;;;;5045174;28;19957;-73
2023/09/04 13:59:43;;;;;;;;;;;28.50;99.90;;;;;;5045140;28;20132;-75
2023/09/04 14:02:10;;;;;;;;;;;28.70;99.90;;;;;;5044395;28;19988;-74
2023/09/04 14:04:36;;;;;;;;;;;28.80;99.90;;;;;;5049212;28;19976;-74
2023/09/04 14:07:03;;;;;;;;;;;28.90;99.90;;;;;;5046058;28;19987;-74
2023/09/04 14:09:30;;;;;;;;;;;28.90;99.90;;;;;;5044540;28;19985;-74
2023/09/04 14:11:56;;;;;;;;;;;29.00;99.90;;;;;;5043470;28;19928;-75
2023/09/04 14:14:25;;;;;;;;;;;29.00;99.90;;;;;;5045085;28;19921;-76
2023/09/04 14:16:53;;;;;;;;;;;28.70;99.90;;;;;;5045097;28;19921;-75
2023/09/04 14:19:20;;;;;;;;;;;28.40;99.90;;;;;;5045122;28;19980;-76
2023/09/04 14:21:46;;;;;;;;;;;28.30;99.90;;;;;;5044272;28;19921;-75
2023/09/04 14:24:14;;;;;;;;;;;28.40;99.90;;;;;;5045526;28;20005;-76
2023/09/04 14:26:41;;;;;;;;;;;28.40;99.90;;;;;;5065184;28;19921;-76
2023/09/04 14:29:07;;;;;;;;;;;28.40;99.90;;;;;;5064864;28;19921;-75
2023/09/04 14:31:34;;;;;;;;;;;28.40;99.90;;;;;;5064037;28;19921;-76
2023/09/04 14:34:02;;;;;;;;;;;28.40;99.90;;;;;;5064762;28;19921;-75